createdAt,value
2022-11-17T00:02:32.215Z,8.22
2022-11-17T00:07:35.709Z,8.17
2022-11-17T00:12:58.723Z,8.22
2022-11-17T00:18:20.692Z,8.16
2022-11-17T00:23:24.138Z,8.12
2022-11-17T00:28:28.899Z,8.22
2022-11-17T00:33:49.541Z,8.23
2022-11-17T00:38:52.919Z,8.35
2022-11-17T00:43:57.778Z,8.43
2022-11-17T00:49:01.193Z,8.48
2022-11-17T00:54:05.723Z,8.58
2022-11-17T00:59:10.616Z,8.56
2022-11-17T01:04:15.109Z,8.57
2022-11-17T01:09:21.267Z,8.82
2022-11-17T01:14:28.336Z,8.89
2022-11-17T01:19:31.680Z,8.81
2022-11-17T01:24:35.103Z,8.81
2022-11-17T01:29:39.858Z,8.91
2022-11-17T01:34:43.249Z,8.93
2022-11-17T01:39:46.926Z,8.99
2022-11-17T01:45:03.427Z,9.16
2022-11-17T01:50:13.724Z,9.15
2022-11-17T01:55:18.959Z,9.14
2022-11-17T02:00:24.198Z,9.19
2022-11-17T02:05:41.473Z,9.26
2022-11-17T02:10:51.309Z,9.29
2022-11-17T02:15:56.563Z,9.33
2022-11-17T02:21:21.914Z,9.30
2022-11-17T02:26:53.703Z,9.35
2022-11-17T02:32:04.496Z,9.31
2022-11-17T02:37:15.923Z,9.26
2022-11-17T02:42:49.054Z,9.23
2022-11-17T02:47:55.911Z,9.23
2022-11-17T02:52:59.373Z,9.22
2022-11-17T02:58:02.712Z,9.24
2022-11-17T03:03:26.285Z,9.34
2022-11-17T03:08:38.460Z,9.44
2022-11-17T03:13:48.585Z,9.46
2022-11-17T03:19:03.511Z,9.53
2022-11-17T03:24:12.672Z,9.53
2022-11-17T03:29:20.405Z,9.52
2022-11-17T03:34:28.703Z,9.56
2022-11-17T03:39:35.086Z,9.50
2022-11-17T03:44:42.311Z,9.59
2022-11-17T03:49:52.759Z,9.60
2022-11-17T03:54:56.483Z,9.51
2022-11-17T04:00:03.396Z,9.56
2022-11-17T04:05:19.391Z,9.72
2022-11-17T04:10:25.816Z,9.88
2022-11-17T04:15:46.733Z,9.90
2022-11-17T04:20:53.476Z,9.89
2022-11-17T04:26:15.742Z,9.95
2022-11-17T04:31:20.673Z,10.04
2022-11-17T04:36:27.024Z,10.21
2022-11-17T04:41:48.788Z,10.17
2022-11-17T04:46:52.934Z,10.10
2022-11-17T04:51:57.734Z,10.08
2022-11-17T04:57:01.220Z,10.05
2022-11-17T05:02:06.281Z,10.11
2022-11-17T05:07:11.343Z,10.04
2022-11-17T05:12:31.947Z,10.18
2022-11-17T05:17:35.330Z,10.23
2022-11-17T05:23:00.231Z,10.14
2022-11-17T05:28:06.111Z,10.19
2022-11-17T05:33:09.430Z,10.15
2022-11-17T05:38:14.193Z,10.19
2022-11-17T05:43:17.557Z,10.23
2022-11-17T05:48:21.466Z,10.25
2022-11-17T05:53:26.991Z,10.32
2022-11-17T05:58:33.619Z,10.40
2022-11-17T06:03:43.386Z,10.70
2022-11-17T06:08:48.168Z,11.17
2022-11-17T06:13:51.610Z,11.17
2022-11-17T06:19:01.953Z,11.16
2022-11-17T06:24:09.774Z,11.12
2022-11-17T06:29:14.516Z,11.02
2022-11-17T06:34:17.982Z,11.17
2022-11-17T06:39:22.873Z,11.37
2022-11-17T06:44:26.208Z,11.59
2022-11-17T06:49:29.681Z,11.88
2022-11-17T06:54:34.435Z,12.28
2022-11-17T06:59:37.780Z,12.47
2022-11-17T07:04:41.237Z,12.81
2022-11-17T07:09:46.119Z,13.22
2022-11-17T07:14:49.633Z,13.56
2022-11-17T07:19:54.638Z,13.84
2022-11-17T07:24:59.419Z,14.01
2022-11-17T07:30:02.951Z,14.18
2022-11-17T07:35:08.164Z,14.30
2022-11-17T07:40:13.642Z,14.51
2022-11-17T07:45:17.097Z,14.87
2022-11-17T07:50:20.567Z,14.98
2022-11-17T07:55:26.493Z,15.08
2022-11-17T08:00:31.993Z,15.30
2022-11-17T08:05:43.098Z,15.32
2022-11-17T08:10:48.537Z,15.24
2022-11-17T08:15:57.343Z,15.43
2022-11-17T08:21:04.905Z,15.56
2022-11-17T08:26:11.805Z,15.72
2022-11-17T08:31:15.446Z,15.83
2022-11-17T08:36:18.833Z,15.66
2022-11-17T08:41:23.747Z,15.77
2022-11-17T08:46:27.221Z,16.07
2022-11-17T08:51:30.586Z,16.65
2022-11-17T08:56:35.402Z,16.95
2022-11-17T09:01:38.862Z,17.03
2022-11-17T09:06:42.375Z,17.14
2022-11-17T09:11:47.292Z,17.09
2022-11-17T09:16:50.697Z,17.04
2022-11-17T09:21:54.101Z,17.03
2022-11-17T09:26:58.866Z,16.85
2022-11-17T09:32:02.261Z,16.92
2022-11-17T09:37:05.776Z,16.91
2022-11-17T09:42:15.385Z,16.90
2022-11-17T09:47:27.620Z,16.71
2022-11-17T09:52:36.598Z,16.58
2022-11-17T09:57:44.699Z,16.44
2022-11-17T10:02:48.921Z,16.39
2022-11-17T10:07:55.053Z,15.97
2022-11-17T10:13:00.851Z,15.72
2022-11-17T10:18:05.728Z,15.41
2022-11-17T10:23:14.110Z,15.19
2022-11-17T10:28:30.156Z,15.18
2022-11-17T10:33:36.317Z,15.27
2022-11-17T10:38:45.800Z,15.10
2022-11-17T10:44:01.313Z,15.00
2022-11-17T10:49:23.553Z,14.86
2022-11-17T10:54:26.951Z,14.70
2022-11-17T10:59:33.371Z,14.70
2022-11-17T11:04:39.604Z,14.53
2022-11-17T11:09:50.214Z,14.42
2022-11-17T11:14:59.699Z,14.43
2022-11-17T11:20:04.232Z,14.49
2022-11-17T11:25:19.127Z,14.48
2022-11-17T11:30:24.044Z,14.58
2022-11-17T11:35:54.351Z,14.59
2022-11-17T11:41:12.282Z,14.63
2022-11-17T11:46:24.925Z,14.54
2022-11-17T11:51:32.379Z,14.56
2022-11-17T11:56:39.908Z,14.53
2022-11-17T12:01:49.793Z,14.61
2022-11-17T12:07:00.811Z,14.48
2022-11-17T12:12:09.972Z,14.39
2022-11-17T12:17:23.616Z,14.35
2022-11-17T12:22:59.651Z,14.38
2022-11-17T12:28:29.236Z,14.28
2022-11-17T12:34:11.798Z,14.08
2022-11-17T12:39:47.692Z,14.04
2022-11-17T12:44:58.189Z,14.13
2022-11-17T12:50:37.300Z,14.12
2022-11-17T12:55:56.423Z,14.04
2022-11-17T13:01:12.446Z,14.07
2022-11-17T13:06:34.946Z,14.09
2022-11-17T13:11:39.248Z,14.18
2022-11-17T13:16:47.796Z,14.30
2022-11-17T13:21:59.877Z,14.58
2022-11-17T13:27:07.415Z,14.58
2022-11-17T13:32:21.251Z,14.55
2022-11-17T13:37:26.362Z,14.56
2022-11-17T13:42:32.928Z,14.53
2022-11-17T13:47:46.729Z,14.44
2022-11-17T13:52:55.354Z,14.37
2022-11-17T13:58:01.237Z,14.37
2022-11-17T14:03:26.824Z,14.29
2022-11-17T14:08:32.989Z,14.19
2022-11-17T14:13:40.288Z,14.12
2022-11-17T14:18:45.100Z,14.01
2022-11-17T14:23:48.534Z,13.89
2022-11-17T14:28:53.322Z,13.78
2022-11-17T14:33:58.186Z,13.61
2022-11-17T14:39:03.453Z,13.57
2022-11-17T14:44:06.846Z,13.47
2022-11-17T14:49:11.700Z,13.33
2022-11-17T14:54:15.124Z,13.15
2022-11-17T14:59:18.855Z,13.03
2022-11-17T15:09:47.268Z,13.15
2022-11-17T15:14:51.147Z,13.10
2022-11-17T15:19:56.432Z,13.06
2022-11-17T15:24:59.919Z,13.04
2022-11-17T15:30:03.384Z,13.03
2022-11-17T15:35:09.247Z,12.94
2022-11-17T15:40:19.117Z,12.77
2022-11-17T15:45:22.951Z,12.79
2022-11-17T15:50:27.830Z,12.70
2022-11-17T15:55:31.204Z,12.65
2022-11-17T16:00:35.031Z,12.62
2022-11-17T16:05:39.897Z,12.52
2022-11-17T16:10:43.306Z,12.49
2022-11-17T16:15:49.267Z,12.38
2022-11-17T16:20:54.796Z,12.35
2022-11-17T16:25:59.089Z,12.22
2022-11-17T16:31:14.848Z,12.18
2022-11-17T16:36:21.014Z,12.10
2022-11-17T16:41:25.567Z,12.17
2022-11-17T16:46:30.921Z,12.15
2022-11-17T16:51:36.116Z,12.03
2022-11-17T16:56:39.553Z,11.95
2022-11-17T17:01:43.160Z,11.86
2022-11-17T17:06:47.917Z,11.85
2022-11-17T17:11:51.514Z,11.86
2022-11-17T17:16:55.015Z,11.85
2022-11-17T17:21:59.837Z,11.90
2022-11-17T17:27:03.227Z,11.80
2022-11-17T17:32:06.673Z,11.90
2022-11-17T17:37:11.475Z,11.85
2022-11-17T17:42:15.025Z,11.75
2022-11-17T17:47:18.393Z,11.72
2022-11-17T17:52:23.225Z,11.70
2022-11-17T17:57:29.854Z,11.60
2022-11-17T18:02:36.509Z,11.52
2022-11-17T18:07:41.346Z,11.42
2022-11-17T18:12:44.769Z,11.35
2022-11-17T18:17:48.155Z,11.22
2022-11-17T18:22:53.105Z,11.19
2022-11-17T18:27:57.151Z,11.09
2022-11-17T18:33:03.092Z,11.21
2022-11-17T18:38:08.212Z,11.09
2022-11-17T18:43:11.616Z,11.06
2022-11-17T18:48:15.000Z,11.07
2022-11-17T18:53:19.786Z,10.97
2022-11-17T18:58:23.165Z,10.85
2022-11-17T19:03:26.592Z,10.94
2022-11-17T19:08:32.189Z,10.89
2022-11-17T19:13:37.211Z,10.80
2022-11-17T19:18:41.420Z,10.76
2022-11-17T19:23:51.469Z,10.63
2022-11-17T19:28:56.861Z,10.58
2022-11-17T19:34:00.397Z,10.50
2022-11-17T19:39:05.601Z,10.49
2022-11-17T19:44:10.279Z,10.53
2022-11-17T19:49:14.222Z,10.51
2022-11-17T19:54:19.419Z,10.52
2022-11-17T19:59:24.984Z,10.45
2022-11-17T20:04:28.403Z,10.36
2022-11-17T20:09:33.207Z,10.39
2022-11-17T20:14:36.639Z,10.42
2022-11-17T20:19:40.209Z,10.53
2022-11-17T20:24:45.293Z,10.47
2022-11-17T20:29:48.681Z,10.40
2022-11-17T20:34:52.054Z,10.48
2022-11-17T20:39:57.980Z,10.46
2022-11-17T20:45:01.361Z,10.31
2022-11-17T20:50:07.644Z,10.34
2022-11-17T20:55:12.456Z,10.36
2022-11-17T21:00:16.822Z,10.20
2022-11-17T21:05:20.219Z,10.11
2022-11-17T21:10:25.077Z,10.04
2022-11-17T21:15:28.435Z,9.94
2022-11-17T21:20:33.380Z,9.90
2022-11-17T21:25:38.320Z,9.79
2022-11-17T21:30:41.600Z,9.74
2022-11-17T21:35:45.025Z,9.67
2022-11-17T21:40:49.843Z,9.70
2022-11-17T21:45:53.254Z,9.71
2022-11-17T21:50:56.792Z,9.72
2022-11-17T21:56:06.294Z,9.61
2022-11-17T22:01:11.502Z,9.59
2022-11-17T22:06:18.195Z,9.63
2022-11-17T22:11:36.740Z,9.63
2022-11-17T22:16:42.654Z,9.63
2022-11-17T22:21:48.356Z,9.62
2022-11-17T22:26:53.117Z,9.58
2022-11-17T22:31:56.492Z,9.58
2022-11-17T22:36:59.940Z,9.40
2022-11-17T22:42:04.808Z,9.46
2022-11-17T22:47:08.183Z,9.46
2022-11-17T22:52:13.135Z,9.35
2022-11-17T22:57:17.960Z,9.41
2022-11-17T23:02:21.351Z,9.42
2022-11-17T23:07:24.745Z,9.11
2022-11-17T23:12:29.541Z,9.08
2022-11-17T23:17:32.935Z,9.04
2022-11-17T23:22:36.272Z,9.19
2022-11-17T23:27:41.111Z,9.17
2022-11-17T23:32:44.508Z,9.19
2022-11-17T23:37:47.890Z,8.99
2022-11-17T23:42:53.942Z,9.10
2022-11-17T23:47:57.337Z,9.02
2022-11-17T23:53:00.699Z,9.04
2022-11-17T23:58:06.109Z,9.02
